createdAt,value
2018-04-24T00:00:40.918Z,5.80
2018-04-24T00:03:09.195Z,6.10
2018-04-24T00:05:37.002Z,5.10
2018-04-24T00:08:04.653Z,6.07
2018-04-24T00:10:32.133Z,6.13
2018-04-24T00:12:59.606Z,6.40
2018-04-24T00:15:27.086Z,5.43
2018-04-24T00:17:54.825Z,6.93
2018-04-24T00:20:22.332Z,6.00
2018-04-24T00:22:50.575Z,6.70
2018-04-24T00:25:18.790Z,6.97
2018-04-24T00:27:47.016Z,6.77
2018-04-24T00:30:14.479Z,6.57
2018-04-24T00:32:41.987Z,6.97
2018-04-24T00:35:13.458Z,7.20
2018-04-24T00:37:41.911Z,7.37
2018-04-24T00:40:09.387Z,7.03
2018-04-24T00:42:37.538Z,6.70
2018-04-24T00:45:05.972Z,7.30
2018-04-24T00:47:34.480Z,7.80
2018-04-24T00:50:02.058Z,7.53
2018-04-24T00:52:30.406Z,7.07
2018-04-24T00:54:58.000Z,6.60
2018-04-24T00:57:26.279Z,7.60
2018-04-24T00:59:54.511Z,7.30
2018-04-24T01:02:22.039Z,7.33
2018-04-24T01:04:49.507Z,7.20
2018-04-24T01:07:16.979Z,8.17
2018-04-24T01:09:44.483Z,7.47
2018-04-24T01:12:12.745Z,7.20
2018-04-24T01:14:40.231Z,7.87
2018-04-24T01:17:07.715Z,8.20
2018-04-24T01:19:35.224Z,7.70
2018-04-24T01:22:02.703Z,8.37
2018-04-24T01:24:30.953Z,7.60
2018-04-24T01:26:58.433Z,8.70
2018-04-24T01:29:26.756Z,8.50
2018-04-24T01:31:54.264Z,9.37
2018-04-24T01:34:22.515Z,9.13
2018-04-24T01:36:50.290Z,9.50
2018-04-24T01:39:17.828Z,8.80
2018-04-24T01:41:45.294Z,8.63
2018-04-24T01:44:12.822Z,9.10
2018-04-24T01:46:40.291Z,9.07
2018-04-24T01:49:07.811Z,9.53
2018-04-24T01:51:36.040Z,9.73
2018-04-24T01:54:03.519Z,10.20
2018-04-24T01:56:30.999Z,11.33
2018-04-24T01:58:59.419Z,10.73
2018-04-24T02:01:26.927Z,10.57
2018-04-24T02:03:55.158Z,11.73
2018-04-24T02:06:22.646Z,12.00
2018-04-24T02:08:50.150Z,12.17
2018-04-24T02:11:17.646Z,13.33
2018-04-24T02:13:45.146Z,14.70
2018-04-24T02:16:13.387Z,14.43
2018-04-24T02:18:40.878Z,14.70
2018-04-24T02:21:09.197Z,15.50
2018-04-24T02:23:36.702Z,15.10
2018-04-24T02:26:04.187Z,16.47
2018-04-24T02:28:31.686Z,16.20
2018-04-24T02:30:59.435Z,16.57
2018-04-24T02:33:26.937Z,17.13
2018-04-24T02:35:54.411Z,18.73
2018-04-24T02:38:22.657Z,19.47
2018-04-24T02:40:50.140Z,19.60
2018-04-24T02:43:17.627Z,19.27
2018-04-24T02:45:45.160Z,19.67
2018-04-24T02:48:12.633Z,18.23
2018-04-24T02:50:40.892Z,17.30
2018-04-24T02:53:08.347Z,15.47
2018-04-24T02:55:36.594Z,16.03
2018-04-24T02:58:04.096Z,15.83
2018-04-24T03:00:32.332Z,14.60
2018-04-24T03:02:59.811Z,15.20
2018-04-24T03:05:27.286Z,13.63
2018-04-24T03:07:55.548Z,12.90
2018-04-24T03:10:23.012Z,12.07
2018-04-24T03:12:50.504Z,12.43
2018-04-24T03:15:18.008Z,12.57
2018-04-24T03:17:45.515Z,12.00
2018-04-24T03:20:13.011Z,12.07
2018-04-24T03:22:40.515Z,11.70
2018-04-24T03:25:08.830Z,12.20
2018-04-24T03:27:36.335Z,12.73
2018-04-24T03:30:03.866Z,12.67
2018-04-24T03:32:31.353Z,12.47
2018-04-24T03:34:58.845Z,12.33
2018-04-24T03:37:26.351Z,14.17
2018-04-24T03:39:53.854Z,14.77
2018-04-24T03:42:22.077Z,16.00
2018-04-24T03:44:49.562Z,16.47
2018-04-24T03:47:17.077Z,17.23
2018-04-24T03:49:44.574Z,16.90
2018-04-24T03:52:12.074Z,16.40
2018-04-24T03:54:39.574Z,16.63
2018-04-24T03:57:07.089Z,15.10
2018-04-24T03:59:34.575Z,13.27
2018-04-24T04:02:02.230Z,13.30
2018-04-24T04:04:29.695Z,12.53
2018-04-24T04:06:57.202Z,12.70
2018-04-24T04:09:25.453Z,10.00
2018-04-24T04:11:52.919Z,9.83
2018-04-24T04:14:20.511Z,10.17
2018-04-24T04:16:48.007Z,9.60
2018-04-24T04:19:27.554Z,9.47
2018-04-24T04:22:07.024Z,9.20
2018-04-24T04:24:52.149Z,8.47
2018-04-24T04:27:19.799Z,8.13
2018-04-24T04:29:47.430Z,8.07
2018-04-24T04:32:16.829Z,8.07
2018-04-24T04:34:44.283Z,7.93
2018-04-24T04:37:12.554Z,7.17
2018-04-24T04:39:40.715Z,7.37
2018-04-24T04:42:08.276Z,7.77
2018-04-24T04:44:35.734Z,6.60
2018-04-24T04:47:03.213Z,7.23
2018-04-24T04:49:31.504Z,7.50
2018-04-24T04:51:59.743Z,7.60
2018-04-24T04:54:27.202Z,7.20
2018-04-24T04:56:54.786Z,7.43
2018-04-24T04:59:22.259Z,7.17
2018-04-24T05:01:49.770Z,6.23
2018-04-24T05:04:17.271Z,5.90
2018-04-24T05:06:45.592Z,5.97
2018-04-24T05:09:13.171Z,5.60
2018-04-24T05:11:40.685Z,5.23
2018-04-24T05:14:08.213Z,5.03
2018-04-24T05:16:35.694Z,5.00
2018-04-24T05:19:03.204Z,4.60
2018-04-24T05:21:31.422Z,5.00
2018-04-24T05:23:59.726Z,4.90
2018-04-24T05:26:27.241Z,5.20
2018-04-24T05:28:54.754Z,4.70
2018-04-24T05:31:22.245Z,4.27
2018-04-24T05:33:49.846Z,4.40
2018-04-24T05:36:17.349Z,5.33
2018-04-24T05:38:44.953Z,3.93
2018-04-24T05:41:13.196Z,4.60
2018-04-24T05:43:40.683Z,4.37
2018-04-24T05:46:08.982Z,4.13
2018-04-24T05:48:37.427Z,4.50
2018-04-24T05:51:04.922Z,4.20
2018-04-24T05:53:32.414Z,3.70
2018-04-24T05:55:59.929Z,4.13
2018-04-24T05:58:27.491Z,4.90
2018-04-24T06:00:55.024Z,4.00
2018-04-24T06:03:22.521Z,4.00
2018-04-24T06:05:50.033Z,3.90
2018-04-24T06:08:17.716Z,4.00
2018-04-24T06:10:46.074Z,4.43
2018-04-24T06:13:13.562Z,4.77
2018-04-24T06:15:41.822Z,3.93
2018-04-24T06:18:09.358Z,4.50
2018-04-24T06:20:36.877Z,4.80
2018-04-24T06:23:04.443Z,4.50
2018-04-24T06:25:31.890Z,4.37
2018-04-24T06:27:59.465Z,4.90
2018-04-24T06:30:26.948Z,4.43
2018-04-24T06:32:54.436Z,5.00
2018-04-24T06:35:21.942Z,5.37
2018-04-24T06:37:49.430Z,4.67
2018-04-24T06:40:16.930Z,4.87
2018-04-24T06:42:44.434Z,4.53
2018-04-24T06:45:12.525Z,5.67
2018-04-24T06:47:40.098Z,4.90
2018-04-24T06:50:07.539Z,4.60
2018-04-24T06:52:35.032Z,5.23
2018-04-24T06:55:03.323Z,5.13
2018-04-24T06:57:30.746Z,5.40
2018-04-24T06:59:58.264Z,4.77
2018-04-24T07:02:26.076Z,4.77
2018-04-24T07:04:53.668Z,5.30
2018-04-24T07:07:21.162Z,5.23
2018-04-24T07:09:48.834Z,5.30
2018-04-24T07:12:20.959Z,4.70
2018-04-24T07:14:48.472Z,5.33
2018-04-24T07:17:16.006Z,5.20
2018-04-24T07:19:43.488Z,5.50
2018-04-24T07:22:11.013Z,5.07
2018-04-24T07:24:38.594Z,5.10
2018-04-24T07:27:06.106Z,5.20
2018-04-24T07:29:33.573Z,5.80
2018-04-24T07:32:01.079Z,6.33
2018-04-24T07:34:28.624Z,5.67
2018-04-24T07:36:56.100Z,5.33
2018-04-24T07:39:23.615Z,6.40
2018-04-24T07:41:51.091Z,6.40
2018-04-24T07:44:18.641Z,6.80
2018-04-24T07:46:46.155Z,7.33
2018-04-24T07:49:13.598Z,6.53
2018-04-24T07:51:41.090Z,7.87
2018-04-24T07:54:08.701Z,7.47
2018-04-24T07:56:36.293Z,7.00
2018-04-24T07:59:03.970Z,7.73
2018-04-24T08:01:32.224Z,7.13
2018-04-24T08:03:59.721Z,7.57
2018-04-24T08:06:27.265Z,7.17
2018-04-24T08:08:55.503Z,7.27
2018-04-24T08:11:23.048Z,7.97
2018-04-24T08:13:51.308Z,6.83
2018-04-24T08:16:18.778Z,6.93
2018-04-24T08:18:46.304Z,7.37
2018-04-24T08:21:13.876Z,6.90
2018-04-24T08:23:41.383Z,7.40
2018-04-24T08:26:08.888Z,6.60
2018-04-24T08:28:36.379Z,6.97
2018-04-24T08:31:03.883Z,7.70
2018-04-24T08:33:32.158Z,7.10
2018-04-24T08:36:00.415Z,8.30
2018-04-24T08:38:27.914Z,7.27
2018-04-24T08:40:55.420Z,7.03
2018-04-24T08:43:22.958Z,7.70
2018-04-24T08:45:50.430Z,7.47
2018-04-24T08:48:17.926Z,7.53
2018-04-24T08:50:45.618Z,6.67
2018-04-24T08:53:13.127Z,6.43
2018-04-24T08:55:40.641Z,7.07
2018-04-24T08:58:08.126Z,7.03
2018-04-24T09:00:35.626Z,6.47
2018-04-24T09:03:03.896Z,6.60
2018-04-24T09:05:31.353Z,6.70
2018-04-24T09:07:59.586Z,7.00
2018-04-24T09:10:27.059Z,5.83
2018-04-24T09:12:54.555Z,6.97
2018-04-24T09:15:22.824Z,7.03
2018-04-24T09:17:51.094Z,6.57
2018-04-24T09:20:18.734Z,7.33
2018-04-24T09:22:46.215Z,7.93
2018-04-24T09:25:14.461Z,8.30
2018-04-24T09:27:41.923Z,7.93
2018-04-24T09:30:09.426Z,7.73
2018-04-24T09:32:36.922Z,7.83
2018-04-24T09:35:04.439Z,8.90
2018-04-24T09:37:32.672Z,8.70
2018-04-24T09:40:00.168Z,8.93
2018-04-24T09:42:28.582Z,9.80
2018-04-24T09:44:56.147Z,10.20
2018-04-24T09:47:23.907Z,10.40
2018-04-24T09:49:51.413Z,11.00
2018-04-24T09:52:19.125Z,11.07
2018-04-24T09:54:46.596Z,11.23
2018-04-24T09:57:14.105Z,11.37
2018-04-24T09:59:42.359Z,10.37
2018-04-24T10:02:09.867Z,10.70
2018-04-24T10:04:37.334Z,11.03
2018-04-24T10:07:04.855Z,11.80
2018-04-24T10:09:32.314Z,10.80
2018-04-24T10:12:00.572Z,10.20
2018-04-24T10:14:28.698Z,10.63
2018-04-24T10:16:56.243Z,10.47
2018-04-24T10:19:24.473Z,11.57
2018-04-24T10:21:51.959Z,12.03
2018-04-24T10:24:20.200Z,13.47
2018-04-24T10:26:47.666Z,11.87
2018-04-24T10:29:15.165Z,11.80
2018-04-24T10:31:42.668Z,11.67
2018-04-24T10:34:10.192Z,11.90
2018-04-24T10:36:37.679Z,11.13
2018-04-24T10:39:06.112Z,12.23
2018-04-24T10:41:34.350Z,11.43
2018-04-24T10:44:01.861Z,12.00
2018-04-24T10:46:29.345Z,12.27
2018-04-24T10:48:56.846Z,11.90
2018-04-24T10:51:24.374Z,13.37
2018-04-24T10:53:51.871Z,13.23
2018-04-24T10:56:20.116Z,12.70
2018-04-24T10:58:47.633Z,13.83
2018-04-24T11:01:15.132Z,14.83
2018-04-24T11:03:42.631Z,14.37
2018-04-24T11:06:10.903Z,15.47
2018-04-24T11:08:39.184Z,16.57
2018-04-24T11:11:07.751Z,14.93
2018-04-24T11:13:35.257Z,12.67
2018-04-24T11:16:02.786Z,14.67
2018-04-24T11:18:31.039Z,15.07
2018-04-24T11:20:58.567Z,14.43
2018-04-24T11:23:26.029Z,13.93
2018-04-24T11:25:53.515Z,15.03
2018-04-24T11:28:21.016Z,14.77
2018-04-24T11:30:48.525Z,14.13
2018-04-24T11:33:16.028Z,13.90
2018-04-24T11:35:44.284Z,15.03
2018-04-24T11:38:11.763Z,13.63
2018-04-24T11:40:39.326Z,15.40
2018-04-24T11:43:06.844Z,15.73
2018-04-24T11:45:34.315Z,16.00
2018-04-24T11:48:01.788Z,16.50
2018-04-24T11:50:30.023Z,16.90
2018-04-24T11:52:57.523Z,17.03
2018-04-24T11:55:25.840Z,16.30
2018-04-24T11:57:53.327Z,16.60
2018-04-24T12:00:20.850Z,15.47
2018-04-24T12:02:48.436Z,15.10
2018-04-24T12:05:15.846Z,15.07
2018-04-24T12:07:43.367Z,15.10
2018-04-24T12:10:10.844Z,15.37
2018-04-24T12:12:39.099Z,14.30
2018-04-24T12:15:06.823Z,14.00
2018-04-24T12:17:34.314Z,14.17
2018-04-24T12:20:01.832Z,15.27
2018-04-24T12:22:29.337Z,14.37
2018-04-24T12:24:56.822Z,14.27
2018-04-24T12:27:25.174Z,13.60
2018-04-24T12:29:52.742Z,14.40
2018-04-24T12:32:20.308Z,14.63
2018-04-24T12:34:47.850Z,15.63
2018-04-24T12:37:15.363Z,14.60
2018-04-24T12:39:42.876Z,15.53
2018-04-24T12:42:10.363Z,14.60
2018-04-24T12:44:38.627Z,14.13
2018-04-24T12:47:06.914Z,13.87
2018-04-24T12:49:35.224Z,13.83
2018-04-24T12:52:02.781Z,13.33
2018-04-24T12:54:30.852Z,13.67
2018-04-24T12:56:58.419Z,13.27
2018-04-24T12:59:25.961Z,13.53
2018-04-24T13:01:53.471Z,14.40
2018-04-24T13:04:20.978Z,16.10
2018-04-24T13:06:48.484Z,16.80
2018-04-24T13:09:15.991Z,19.33
2018-04-24T13:11:43.504Z,19.43
2018-04-24T13:14:11.003Z,21.47
2018-04-24T13:16:39.366Z,22.53
2018-04-24T13:19:07.704Z,23.37
2018-04-24T13:21:35.176Z,25.40
2018-04-24T13:24:02.659Z,25.70
2018-04-24T13:26:30.903Z,25.93
2018-04-24T13:28:59.222Z,25.43
2018-04-24T13:31:27.504Z,24.40
2018-04-24T13:33:55.763Z,23.77
2018-04-24T13:36:23.297Z,23.83
2018-04-24T13:38:50.813Z,23.93
2018-04-24T13:41:18.320Z,23.97
2018-04-24T13:43:45.785Z,28.07
2018-04-24T13:46:13.283Z,28.83
2018-04-24T13:48:40.835Z,28.23
2018-04-24T13:51:09.087Z,28.03
2018-04-24T13:53:36.705Z,28.13
2018-04-24T13:56:04.214Z,26.83
2018-04-24T13:58:31.706Z,25.27
2018-04-24T14:00:59.239Z,25.13
2018-04-24T14:03:26.906Z,25.27
2018-04-24T14:05:55.191Z,25.73
2018-04-24T14:08:23.591Z,26.27
2018-04-24T14:10:51.092Z,25.73
2018-04-24T14:13:18.595Z,21.57
2018-04-24T14:15:46.128Z,26.07
2018-04-24T14:18:13.633Z,25.77
2018-04-24T14:20:41.122Z,24.33
2018-04-24T14:23:08.641Z,25.00
2018-04-24T14:25:36.107Z,24.90
2018-04-24T14:28:03.608Z,25.30
2018-04-24T14:30:31.137Z,25.43
2018-04-24T14:32:58.712Z,24.93
2018-04-24T14:35:26.179Z,26.83
2018-04-24T14:37:53.730Z,27.47
2018-04-24T14:40:21.247Z,27.87
2018-04-24T14:42:48.844Z,28.53
2018-04-24T14:45:16.249Z,28.23
2018-04-24T14:47:44.505Z,30.40
2018-04-24T14:50:11.996Z,31.57
2018-04-24T14:52:39.498Z,32.67
2018-04-24T14:55:07.030Z,33.03
2018-04-24T14:57:34.541Z,31.53
2018-04-24T15:00:02.050Z,30.97
2018-04-24T15:02:29.566Z,31.33
2018-04-24T15:04:57.889Z,30.53
2018-04-24T15:07:25.430Z,30.00
2018-04-24T15:09:52.959Z,31.83
2018-04-24T15:12:20.443Z,30.43
2018-04-24T15:14:47.949Z,30.57
2018-04-24T15:17:15.457Z,31.10
2018-04-24T15:19:43.703Z,29.10
2018-04-24T15:22:11.398Z,29.60
2018-04-24T15:24:39.739Z,30.17
2018-04-24T15:27:24.988Z,28.67
2018-04-24T15:29:52.877Z,30.57
2018-04-24T15:32:21.091Z,29.57
2018-04-24T15:34:48.639Z,30.40
2018-04-24T15:37:17.004Z,33.20
2018-04-24T15:39:44.617Z,31.70
2018-04-24T15:42:12.098Z,31.63
2018-04-24T15:44:39.607Z,31.13
2018-04-24T15:47:07.329Z,30.10
2018-04-24T15:49:35.034Z,31.90
2018-04-24T15:52:02.598Z,30.80
2018-04-24T15:54:30.106Z,29.97
2018-04-24T15:56:57.606Z,30.37
2018-04-24T15:59:25.123Z,30.20
2018-04-24T16:01:52.623Z,28.47
2018-04-24T16:04:21.530Z,28.43
2018-04-24T16:06:49.091Z,28.73
2018-04-24T16:09:16.741Z,27.97
2018-04-24T16:11:44.458Z,28.47
2018-04-24T16:14:12.581Z,28.03
2018-04-24T16:16:40.204Z,29.90
2018-04-24T16:19:07.792Z,27.90
2018-04-24T16:21:35.313Z,26.97
2018-04-24T16:24:03.623Z,26.93
2018-04-24T16:26:31.060Z,24.67
2018-04-24T16:28:58.692Z,23.43
2018-04-24T16:31:26.223Z,23.40
2018-04-24T16:33:53.740Z,23.20
2018-04-24T16:36:21.271Z,22.37
2018-04-24T16:38:48.900Z,22.77
2018-04-24T16:41:16.486Z,21.33
2018-04-24T16:43:44.317Z,22.10
2018-04-24T16:46:12.661Z,21.07
2018-04-24T16:48:40.143Z,21.70
2018-04-24T16:51:08.939Z,21.50
2018-04-24T16:53:37.268Z,21.83
2018-04-24T16:56:04.997Z,22.03
2018-04-24T16:58:32.589Z,20.30
2018-04-24T17:01:00.139Z,19.27
2018-04-24T17:03:27.756Z,19.30
2018-04-24T17:05:56.051Z,19.63
2018-04-24T17:08:23.822Z,20.53
2018-04-24T17:10:52.169Z,21.00
2018-04-24T17:13:19.994Z,19.87
2018-04-24T17:15:47.540Z,17.40
2018-04-24T17:18:15.135Z,23.87
2018-04-24T17:20:42.642Z,22.20
2018-04-24T17:23:10.883Z,16.47
2018-04-24T17:25:38.392Z,18.87
2018-04-24T17:28:06.702Z,18.90
2018-04-24T17:30:34.211Z,18.17
2018-04-24T17:33:01.723Z,19.30
2018-04-24T17:35:29.243Z,16.27
2018-04-24T17:37:56.719Z,16.27
2018-04-24T17:40:24.436Z,16.40
2018-04-24T17:42:52.020Z,18.97
2018-04-24T17:45:19.495Z,16.70
2018-04-24T17:47:47.002Z,20.97
2018-04-24T17:50:14.516Z,16.27
2018-04-24T17:52:42.021Z,18.97
2018-04-24T17:55:09.531Z,17.43
2018-04-24T17:57:37.040Z,16.20
2018-04-24T18:00:04.556Z,15.30
2018-04-24T18:02:32.088Z,17.17
2018-04-24T18:04:59.586Z,18.20
2018-04-24T18:07:27.077Z,17.30
2018-04-24T18:09:54.702Z,17.13
2018-04-24T18:12:22.222Z,17.13
2018-04-24T18:14:49.735Z,16.97
2018-04-24T18:17:17.256Z,16.37
2018-04-24T18:19:44.836Z,16.93
2018-04-24T18:22:13.157Z,17.27
2018-04-24T18:24:40.695Z,17.93
2018-04-24T18:27:08.313Z,17.67
2018-04-24T18:29:35.995Z,17.30
2018-04-24T18:32:03.659Z,18.53
2018-04-24T18:34:31.157Z,18.17
2018-04-24T18:36:58.835Z,17.73
2018-04-24T18:39:26.406Z,17.93
2018-04-24T18:41:53.923Z,17.97
2018-04-24T18:44:21.524Z,19.00
2018-04-24T18:46:49.042Z,19.27
2018-04-24T18:49:16.521Z,18.63
2018-04-24T18:51:44.828Z,19.67
2018-04-24T18:54:12.375Z,18.87
2018-04-24T18:56:40.648Z,20.53
2018-04-24T18:59:08.924Z,20.17
2018-04-24T19:01:37.170Z,19.17
2018-04-24T19:04:04.842Z,19.27
2018-04-24T19:06:32.354Z,19.47
2018-04-24T19:08:59.834Z,18.23
2018-04-24T19:11:27.366Z,18.57
2018-04-24T19:13:54.863Z,19.33
2018-04-24T19:16:22.380Z,19.77
2018-04-24T19:18:55.639Z,19.83
2018-04-24T19:21:23.950Z,19.80
2018-04-24T19:23:51.475Z,20.80
2018-04-24T19:26:19.716Z,20.10
2018-04-24T19:28:47.215Z,22.40
2018-04-24T19:31:21.410Z,22.07
2018-04-24T19:33:48.927Z,21.57
2018-04-24T19:36:16.438Z,21.70
2018-04-24T19:38:49.532Z,22.23
2018-04-24T19:41:22.593Z,23.20
2018-04-24T19:43:50.134Z,24.70
2018-04-24T19:46:17.650Z,24.27
2018-04-24T19:48:51.532Z,26.00
2018-04-24T19:51:19.074Z,27.77
2018-04-24T19:53:46.563Z,28.93
2018-04-24T19:56:14.096Z,30.37
2018-04-24T19:58:41.700Z,31.23
2018-04-24T20:01:09.154Z,31.93
2018-04-24T20:03:36.649Z,33.20
2018-04-24T20:06:04.177Z,34.47
2018-04-24T20:08:31.750Z,33.87
2018-04-24T20:10:59.233Z,36.53
2018-04-24T20:13:26.750Z,36.30
2018-04-24T20:15:54.314Z,38.13
2018-04-24T20:18:22.034Z,38.33
2018-04-24T20:20:49.468Z,37.53
2018-04-24T20:23:17.004Z,40.00
2018-04-24T20:25:44.488Z,40.53
2018-04-24T20:28:11.991Z,41.37
2018-04-24T20:30:40.284Z,41.37
2018-04-24T20:33:08.577Z,41.73
2018-04-24T20:35:36.216Z,42.67
2018-04-24T20:38:03.793Z,44.67
2018-04-24T20:40:32.283Z,43.00
2018-04-24T20:42:59.789Z,44.00
2018-04-24T20:45:27.280Z,44.23
2018-04-24T20:47:55.001Z,46.47
2018-04-24T20:50:22.499Z,45.10
2018-04-24T20:52:50.747Z,46.47
2018-04-24T20:55:18.242Z,44.77
2018-04-24T20:57:46.541Z,44.03
2018-04-24T21:00:14.052Z,40.30
2018-04-24T21:02:41.625Z,40.30
2018-04-24T21:05:10.133Z,38.87
2018-04-24T21:07:37.720Z,36.93
2018-04-24T21:10:05.341Z,36.17
2018-04-24T21:12:33.651Z,36.13
2018-04-24T21:15:01.260Z,35.03
2018-04-24T21:17:28.818Z,35.87
2018-04-24T21:19:57.092Z,36.00
2018-04-24T21:22:24.705Z,36.57
2018-04-24T21:24:52.191Z,35.47
2018-04-24T21:27:20.480Z,35.43
2018-04-24T21:29:48.192Z,35.37
2018-04-24T21:32:15.774Z,35.97
2018-04-24T21:34:44.217Z,34.77
2018-04-24T21:37:12.781Z,32.97
2018-04-24T21:39:40.418Z,34.07
2018-04-24T21:42:08.769Z,34.87
2018-04-24T21:44:36.325Z,32.90
2018-04-24T21:47:04.518Z,33.80
2018-04-24T21:49:33.484Z,31.57
2018-04-24T21:52:01.307Z,33.17
2018-04-24T21:54:29.463Z,32.53
2018-04-24T21:56:57.013Z,32.40
2018-04-24T21:59:24.594Z,32.60
2018-04-24T22:01:53.277Z,33.40
2018-04-24T22:04:20.945Z,34.43
2018-04-24T22:06:48.507Z,33.20
2018-04-24T22:09:16.100Z,33.27
2018-04-24T22:11:44.543Z,32.90
2018-04-24T22:14:12.146Z,33.47
2018-04-24T22:16:40.586Z,34.67
2018-04-24T22:19:08.211Z,34.60
2018-04-24T22:21:35.780Z,34.77
2018-04-24T22:24:04.707Z,32.43
2018-04-24T22:26:32.408Z,34.90
2018-04-24T22:29:00.790Z,32.83
2018-04-24T22:31:29.267Z,33.70
2018-04-24T22:33:57.545Z,33.97
2018-04-24T22:36:25.207Z,34.30
2018-04-24T22:38:53.218Z,34.00
2018-04-24T22:41:20.898Z,34.07
2018-04-24T22:43:49.175Z,35.03
2018-04-24T22:46:17.602Z,33.10
2018-04-24T22:48:45.205Z,33.63
2018-04-24T22:51:12.784Z,32.07
2018-04-24T22:53:40.564Z,32.57
2018-04-24T22:56:08.356Z,32.23
2018-04-24T22:58:36.012Z,32.60
2018-04-24T23:01:03.510Z,32.50
2018-04-24T23:03:31.097Z,30.20
2018-04-24T23:05:58.731Z,32.00
2018-04-24T23:08:26.393Z,32.23
2018-04-24T23:11:05.973Z,31.77
2018-04-24T23:13:46.628Z,30.37
2018-04-24T23:16:26.355Z,31.67
2018-04-24T23:19:06.586Z,33.20
2018-04-24T23:21:33.588Z,32.37
2018-04-24T23:24:02.518Z,32.30
2018-04-24T23:26:30.519Z,32.30
2018-04-24T23:28:58.043Z,32.83
2018-04-24T23:31:25.615Z,31.83
2018-04-24T23:33:53.179Z,32.93
2018-04-24T23:36:21.537Z,30.50
2018-04-24T23:38:49.244Z,32.87
2018-04-24T23:41:17.505Z,34.07
2018-04-24T23:43:45.018Z,32.20
2018-04-24T23:46:18.023Z,30.57
2018-04-24T23:48:45.526Z,31.47
2018-04-24T23:51:13.028Z,31.77
2018-04-24T23:53:41.286Z,30.43
2018-04-24T23:56:08.863Z,31.60
2018-04-24T23:58:37.086Z,30.27
